createdAt,value
2022-12-19T00:00:05.682Z,87.95
2022-12-19T00:00:39.755Z,88.93
2022-12-19T00:01:21.895Z,87.43
2022-12-19T00:01:53.648Z,86.53
2022-12-19T00:02:25.640Z,81.65
2022-12-19T00:02:57.555Z,80.55
2022-12-19T00:03:29.421Z,94.15
2022-12-19T00:04:08.259Z,87.65
2022-12-19T00:04:40.487Z,83.13
2022-12-19T00:05:13.446Z,87.18
2022-12-19T00:05:45.061Z,94.60
2022-12-19T00:06:17.771Z,96.28
2022-12-19T00:06:49.336Z,91.13
2022-12-19T00:07:20.957Z,93.43
2022-12-19T00:07:53.680Z,107.65
2022-12-19T00:08:25.248Z,102.97
2022-12-19T00:09:00.298Z,96.63
2022-12-19T00:09:32.179Z,86.47
2022-12-19T00:10:06.997Z,91.65
2022-12-19T00:10:38.579Z,95.07
2022-12-19T00:11:11.399Z,88.20
2022-12-19T00:11:43.037Z,90.90
2022-12-19T00:12:19.053Z,89.53
2022-12-19T00:12:50.912Z,90.50
2022-12-19T00:13:22.827Z,92.20
2022-12-19T00:13:54.467Z,85.65
2022-12-19T00:14:26.045Z,80.70
2022-12-19T00:14:57.575Z,83.75
2022-12-19T00:15:33.734Z,80.53
2022-12-19T00:16:07.851Z,83.45
2022-12-19T00:16:39.506Z,87.22
2022-12-19T00:17:11.521Z,97.38
2022-12-19T00:17:43.067Z,94.35
2022-12-19T00:18:14.671Z,80.97
2022-12-19T00:18:47.235Z,86.78
2022-12-19T00:19:18.836Z,87.55
2022-12-19T00:19:50.368Z,93.78
2022-12-19T00:20:22.023Z,96.18
2022-12-19T00:21:02.319Z,97.55
2022-12-19T00:21:35.481Z,90.40
2022-12-19T00:22:11.123Z,88.03
2022-12-19T00:22:42.998Z,84.82
2022-12-19T00:23:14.627Z,88.47
2022-12-19T00:23:46.758Z,89.47
2022-12-19T00:24:20.636Z,87.47
2022-12-19T00:24:52.629Z,88.90
2022-12-19T00:25:24.196Z,85.15
2022-12-19T00:25:56.620Z,83.35
2022-12-19T00:26:30.704Z,92.57
2022-12-19T00:27:02.247Z,86.57
2022-12-19T00:27:35.381Z,89.55
2022-12-19T00:28:06.956Z,84.40
2022-12-19T00:28:39.390Z,83.25
2022-12-19T00:29:14.208Z,84.95
2022-12-19T00:29:46.178Z,84.80
2022-12-19T00:30:17.869Z,89.50
2022-12-19T00:30:49.469Z,93.90
2022-12-19T00:31:24.362Z,90.03
2022-12-19T00:31:56.015Z,90.85
2022-12-19T00:32:27.717Z,92.55
2022-12-19T00:32:59.299Z,92.82
2022-12-19T00:33:31.086Z,86.40
2022-12-19T00:34:04.679Z,90.70
2022-12-19T00:34:36.218Z,88.35
2022-12-19T00:35:08.049Z,87.47
2022-12-19T00:35:39.617Z,88.90
2022-12-19T00:36:13.870Z,98.85
2022-12-19T00:36:46.517Z,94.68
2022-12-19T00:37:18.084Z,87.45
2022-12-19T00:37:49.922Z,94.88
2022-12-19T00:38:22.397Z,97.50
2022-12-19T00:38:56.081Z,98.72
2022-12-19T00:39:27.685Z,91.32
2022-12-19T00:39:59.299Z,89.03
2022-12-19T00:40:30.845Z,97.53
2022-12-19T00:41:11.041Z,94.53
2022-12-19T00:41:42.745Z,85.85
2022-12-19T00:42:14.303Z,95.78
2022-12-19T00:42:50.239Z,89.47
2022-12-19T00:43:25.071Z,91.63
2022-12-19T00:44:02.481Z,84.82
2022-12-19T00:44:34.123Z,91.20
2022-12-19T00:45:06.110Z,89.13
2022-12-19T00:45:38.612Z,96.50
2022-12-19T00:46:13.804Z,87.90
2022-12-19T00:46:50.252Z,91.07
2022-12-19T00:47:27.440Z,93.82
2022-12-19T00:47:58.976Z,93.75
2022-12-19T00:48:31.609Z,90.88
2022-12-19T00:49:04.009Z,86.40
2022-12-19T00:49:35.590Z,91.65
2022-12-19T00:50:09.094Z,90.13
2022-12-19T00:50:40.666Z,87.20
2022-12-19T00:51:17.670Z,89.95
2022-12-19T00:51:49.537Z,95.82
2022-12-19T00:52:21.117Z,91.50
2022-12-19T00:52:53.990Z,87.78
2022-12-19T00:53:25.566Z,88.97
2022-12-19T00:53:58.181Z,90.30
2022-12-19T00:54:30.271Z,83.75
2022-12-19T00:55:02.222Z,81.75
2022-12-19T00:55:38.865Z,84.30
2022-12-19T00:56:13.238Z,82.07
2022-12-19T00:56:44.822Z,83.25
2022-12-19T00:57:16.403Z,85.57
2022-12-19T00:57:48.030Z,80.35
2022-12-19T00:58:19.622Z,83.18
2022-12-19T00:58:52.117Z,82.90
2022-12-19T00:59:26.460Z,88.03
2022-12-19T00:59:58.462Z,90.40
2022-12-19T01:00:30.042Z,88.95
2022-12-19T01:01:12.431Z,86.97
2022-12-19T01:01:44.346Z,82.07
2022-12-19T01:02:16.144Z,80.85
2022-12-19T01:02:47.885Z,81.53
2022-12-19T01:03:19.602Z,83.78
2022-12-19T01:04:26.478Z,80.53
2022-12-19T01:04:43.562Z,86.90
2022-12-19T01:05:15.243Z,81.30
2022-12-19T01:05:46.824Z,84.60
2022-12-19T01:06:19.225Z,88.43
2022-12-19T01:06:51.288Z,81.38
2022-12-19T01:07:23.131Z,81.97
2022-12-19T01:07:54.781Z,80.82
2022-12-19T01:08:26.381Z,80.70
2022-12-19T01:08:59.227Z,81.43
2022-12-19T01:09:31.245Z,84.60
2022-12-19T01:10:03.114Z,85.30
2022-12-19T01:10:34.719Z,82.85
2022-12-19T01:11:07.317Z,88.68
2022-12-19T01:11:57.379Z,85.40
2022-12-19T01:12:46.767Z,84.95
2022-12-19T01:13:20.601Z,75.22
2022-12-19T01:13:52.186Z,83.95
2022-12-19T01:14:23.994Z,84.63
2022-12-19T01:15:05.073Z,80.97
2022-12-19T01:15:39.773Z,86.97
2022-12-19T01:16:13.936Z,94.50
2022-12-19T01:16:45.590Z,84.28
2022-12-19T01:17:17.278Z,82.22
2022-12-19T01:17:49.510Z,83.38
2022-12-19T01:18:21.201Z,83.20
2022-12-19T01:18:52.736Z,88.95
2022-12-19T01:19:24.299Z,94.25
2022-12-19T01:19:55.843Z,83.15
2022-12-19T01:20:29.691Z,86.28
2022-12-19T01:21:04.179Z,86.50
2022-12-19T01:21:35.765Z,84.25
2022-12-19T01:22:07.381Z,80.70
2022-12-19T01:22:39.038Z,80.13
2022-12-19T01:23:10.940Z,81.72
2022-12-19T01:23:42.540Z,81.07
2022-12-19T01:24:16.319Z,80.05
2022-12-19T01:24:50.750Z,84.72
2022-12-19T01:25:22.373Z,87.25
2022-12-19T01:25:55.409Z,81.80
2022-12-19T01:26:27.044Z,81.43
2022-12-19T01:26:58.590Z,75.75
2022-12-19T01:27:31.678Z,82.80
2022-12-19T01:28:04.403Z,80.43
2022-12-19T01:28:36.115Z,83.10
2022-12-19T01:29:07.735Z,84.43
2022-12-19T01:29:51.727Z,85.10
2022-12-19T01:30:24.366Z,88.13
2022-12-19T01:30:56.197Z,86.82
2022-12-19T01:31:27.857Z,82.28
2022-12-19T01:32:00.270Z,83.70
2022-12-19T01:32:35.214Z,86.03
2022-12-19T01:33:08.776Z,83.70
2022-12-19T01:33:40.356Z,85.13
2022-12-19T01:34:14.111Z,85.55
2022-12-19T01:34:45.710Z,87.97
2022-12-19T01:35:21.169Z,84.75
2022-12-19T01:35:53.492Z,83.28
2022-12-19T01:36:25.230Z,81.80
2022-12-19T01:36:56.763Z,81.20
2022-12-19T01:37:28.319Z,79.75
2022-12-19T01:38:07.773Z,79.90
2022-12-19T01:38:40.261Z,81.63
2022-12-19T01:39:11.852Z,86.55
2022-12-19T01:39:43.417Z,84.00
2022-12-19T01:40:18.543Z,84.43
2022-12-19T01:40:52.123Z,85.68
2022-12-19T01:41:23.902Z,80.85
2022-12-19T01:41:55.454Z,83.85
2022-12-19T01:42:34.518Z,86.63
2022-12-19T01:43:06.788Z,84.18
2022-12-19T01:44:13.640Z,85.40
2022-12-19T01:45:05.348Z,81.07
2022-12-19T01:45:43.847Z,75.85
2022-12-19T01:46:17.677Z,75.38
2022-12-19T01:46:57.606Z,78.90
2022-12-19T01:47:30.304Z,79.43
2022-12-19T01:48:28.388Z,79.00
2022-12-19T01:49:01.845Z,74.32
2022-12-19T01:49:36.138Z,78.72
2022-12-19T01:50:14.316Z,79.65
2022-12-19T01:51:01.097Z,85.07
2022-12-19T01:52:01.189Z,79.80
2022-12-19T01:52:33.130Z,80.72
2022-12-19T01:53:07.072Z,78.82
2022-12-19T01:53:48.931Z,79.20
2022-12-19T01:54:25.554Z,83.20
2022-12-19T01:54:57.346Z,77.38
2022-12-19T01:55:30.976Z,81.22
2022-12-19T01:56:09.650Z,78.60
2022-12-19T01:56:46.109Z,82.25
2022-12-19T01:57:19.625Z,77.78
2022-12-19T01:57:51.848Z,85.80
2022-12-19T01:58:24.050Z,77.75
2022-12-19T01:59:06.550Z,79.75
2022-12-19T01:59:43.806Z,77.85
2022-12-19T02:01:11.086Z,79.65
2022-12-19T02:01:51.582Z,81.80
2022-12-19T02:02:29.836Z,75.07
2022-12-19T02:03:12.759Z,78.68
2022-12-19T02:03:45.769Z,85.32
2022-12-19T02:04:17.795Z,78.18
2022-12-19T02:04:49.360Z,80.10
2022-12-19T02:05:21.091Z,79.35
2022-12-19T02:05:53.688Z,78.07
2022-12-19T02:06:27.208Z,83.57
2022-12-19T02:06:59.993Z,80.72
2022-12-19T02:07:38.770Z,78.13
2022-12-19T02:08:10.996Z,79.88
2022-12-19T02:08:46.175Z,81.85
2022-12-19T02:09:17.813Z,77.10
2022-12-19T02:09:56.881Z,79.00
2022-12-19T02:10:29.214Z,79.60
2022-12-19T02:11:00.777Z,85.20
2022-12-19T02:11:32.431Z,85.53
2022-12-19T02:12:04.624Z,81.13
2022-12-19T02:12:39.924Z,83.18
2022-12-19T02:13:12.293Z,78.70
2022-12-19T02:13:44.291Z,80.93
2022-12-19T02:14:18.877Z,84.30
2022-12-19T02:14:51.514Z,81.30
2022-12-19T02:15:32.984Z,82.85
2022-12-19T02:16:40.619Z,80.90
2022-12-19T02:17:23.622Z,81.80
2022-12-19T02:18:19.619Z,75.82
2022-12-19T02:19:25.112Z,77.13
2022-12-19T02:20:07.380Z,73.53
2022-12-19T02:20:39.009Z,79.20
2022-12-19T02:21:34.134Z,80.63
2022-12-19T02:22:23.224Z,76.18
2022-12-19T02:23:00.706Z,80.03
2022-12-19T02:23:53.172Z,79.72
2022-12-19T02:25:02.246Z,83.38
2022-12-19T02:25:45.639Z,82.32
2022-12-19T02:26:52.038Z,80.55
2022-12-19T02:27:39.985Z,75.07
2022-12-19T02:28:17.114Z,75.35
2022-12-19T02:29:45.787Z,77.30
2022-12-19T02:30:36.832Z,73.38
2022-12-19T02:31:19.608Z,80.18
2022-12-19T02:31:58.778Z,79.57
2022-12-19T02:32:48.310Z,74.38
2022-12-19T02:33:26.439Z,74.80
2022-12-19T02:34:03.567Z,73.53
2022-12-19T02:34:49.722Z,78.15
2022-12-19T02:35:41.112Z,80.10
2022-12-19T02:36:17.726Z,82.05
2022-12-19T02:37:00.789Z,74.45
2022-12-19T02:37:37.918Z,77.55
2022-12-19T02:38:27.982Z,78.60
2022-12-19T02:39:10.628Z,76.65
2022-12-19T02:40:08.223Z,75.80
2022-12-19T02:40:55.913Z,80.82
2022-12-19T02:41:43.296Z,76.65
2022-12-19T02:42:25.872Z,79.65
2022-12-19T02:43:03.019Z,76.68
2022-12-19T02:43:44.453Z,82.22
2022-12-19T02:44:23.940Z,75.95
2022-12-19T02:44:56.798Z,70.97
2022-12-19T02:45:33.957Z,75.75
2022-12-19T02:46:06.920Z,79.65
2022-12-19T02:46:38.712Z,80.68
2022-12-19T02:47:12.144Z,83.90
2022-12-19T02:47:45.039Z,78.60
2022-12-19T02:48:19.417Z,80.15
2022-12-19T02:48:51.732Z,74.95
2022-12-19T02:49:30.364Z,79.85
2022-12-19T02:50:04.504Z,79.38
2022-12-19T02:50:48.444Z,81.18
2022-12-19T02:51:21.890Z,77.68
2022-12-19T02:51:53.665Z,79.70
2022-12-19T02:52:25.198Z,79.72
2022-12-19T02:52:56.745Z,78.50
2022-12-19T02:53:28.352Z,81.25
2022-12-19T02:53:59.964Z,82.97
2022-12-19T02:54:31.529Z,76.47
2022-12-19T02:55:13.907Z,83.05
2022-12-19T02:55:54.301Z,82.03
2022-12-19T02:56:49.024Z,84.68
2022-12-19T02:57:45.911Z,80.50
2022-12-19T02:58:34.420Z,76.85
2022-12-19T02:59:21.152Z,73.55
2022-12-19T03:00:03.170Z,73.97
2022-12-19T03:01:13.752Z,82.18
2022-12-19T03:01:52.710Z,74.53
2022-12-19T03:02:40.595Z,83.30
2022-12-19T03:03:28.075Z,77.80
2022-12-19T03:04:35.171Z,74.43
2022-12-19T03:05:30.549Z,77.93
2022-12-19T03:06:20.660Z,76.60
2022-12-19T03:07:15.161Z,84.55
2022-12-19T03:08:02.075Z,82.53
2022-12-19T03:09:01.478Z,84.32
2022-12-19T03:09:59.987Z,77.78
2022-12-19T03:10:55.325Z,81.35
2022-12-19T03:11:32.565Z,83.03
2022-12-19T03:12:12.828Z,83.80
2022-12-19T03:13:01.245Z,85.70
2022-12-19T03:13:40.234Z,80.97
2022-12-19T03:14:16.343Z,88.10
2022-12-19T03:14:49.385Z,80.35
2022-12-19T03:15:21.675Z,88.47
2022-12-19T03:15:53.794Z,86.88
2022-12-19T03:16:25.948Z,90.10
2022-12-19T03:17:03.074Z,85.63
2022-12-19T03:17:36.934Z,89.20
2022-12-19T03:18:09.205Z,82.43
2022-12-19T03:18:41.169Z,76.78
2022-12-19T03:19:14.745Z,85.75
2022-12-19T03:19:46.455Z,87.88
2022-12-19T03:20:52.159Z,84.22
2022-12-19T03:21:29.265Z,81.85
2022-12-19T03:22:01.400Z,84.00
2022-12-19T03:22:33.072Z,85.05
2022-12-19T03:23:04.676Z,88.20
2022-12-19T03:23:40.449Z,88.85
2022-12-19T03:24:13.824Z,84.65
2022-12-19T03:24:45.434Z,84.60
2022-12-19T03:25:18.010Z,84.10
2022-12-19T03:25:54.631Z,80.72
2022-12-19T03:26:30.585Z,87.90
2022-12-19T03:27:38.214Z,81.70
2022-12-19T03:28:16.320Z,81.68
2022-12-19T03:28:56.800Z,84.13
2022-12-19T03:29:38.635Z,88.15
2022-12-19T03:30:12.973Z,81.95
2022-12-19T03:30:46.519Z,87.68
2022-12-19T03:31:23.489Z,81.00
2022-12-19T03:31:57.170Z,82.40
2022-12-19T03:32:31.107Z,79.60
2022-12-19T03:33:03.782Z,82.07
2022-12-19T03:33:38.303Z,88.72
2022-12-19T03:34:27.185Z,89.15
2022-12-19T03:35:08.472Z,83.55
2022-12-19T03:35:41.633Z,78.22
2022-12-19T03:36:20.023Z,84.25
2022-12-19T03:36:57.912Z,82.80
2022-12-19T03:37:33.675Z,85.85
2022-12-19T03:38:06.986Z,83.15
2022-12-19T03:38:40.677Z,84.15
2022-12-19T03:39:14.554Z,82.03
2022-12-19T03:39:51.041Z,78.70
2022-12-19T03:40:25.647Z,80.90
2022-12-19T03:40:59.629Z,84.80
2022-12-19T03:41:50.701Z,84.78
2022-12-19T03:42:44.533Z,81.45
2022-12-19T03:43:17.529Z,86.38
2022-12-19T03:43:49.321Z,84.45
2022-12-19T03:44:24.079Z,81.57
2022-12-19T03:44:57.661Z,87.03
2022-12-19T03:45:41.343Z,82.20
2022-12-19T03:46:23.136Z,84.78
2022-12-19T03:47:00.830Z,83.68
2022-12-19T03:47:39.474Z,84.18
2022-12-19T03:48:16.276Z,82.53
2022-12-19T03:48:50.474Z,85.32
2022-12-19T03:49:22.114Z,85.65
2022-12-19T03:49:53.835Z,83.88
2022-12-19T03:50:31.860Z,94.53
2022-12-19T03:51:17.975Z,85.13
2022-12-19T03:51:49.509Z,82.53
2022-12-19T03:52:35.984Z,84.50
2022-12-19T03:53:49.134Z,85.50
2022-12-19T03:54:27.602Z,78.45
2022-12-19T03:55:21.299Z,80.70
2022-12-19T03:56:11.870Z,82.80
2022-12-19T03:56:48.872Z,85.05
2022-12-19T03:57:30.731Z,84.78
2022-12-19T03:58:07.956Z,82.20
2022-12-19T03:58:45.590Z,75.70
2022-12-19T03:59:32.038Z,81.00
2022-12-19T04:00:09.099Z,77.63
2022-12-19T04:00:43.672Z,80.22
2022-12-19T04:01:15.936Z,78.85
2022-12-19T04:01:48.316Z,75.20
2022-12-19T04:02:22.013Z,80.20
2022-12-19T04:02:56.989Z,81.85
2022-12-19T04:03:30.548Z,82.35
2022-12-19T04:04:03.452Z,82.07
2022-12-19T04:04:42.501Z,80.20
2022-12-19T04:05:25.046Z,82.72
2022-12-19T04:05:58.415Z,77.53
2022-12-19T04:06:32.923Z,80.78
2022-12-19T04:07:06.840Z,79.70
2022-12-19T04:07:39.980Z,81.68
2022-12-19T04:08:12.271Z,86.82
2022-12-19T04:08:44.536Z,83.07
2022-12-19T04:09:22.432Z,83.82
2022-12-19T04:09:57.800Z,82.85
2022-12-19T04:10:30.251Z,76.15
2022-12-19T04:11:07.837Z,86.18
2022-12-19T04:11:43.730Z,81.53
2022-12-19T04:12:27.292Z,81.07
2022-12-19T04:13:11.986Z,88.28
2022-12-19T04:13:50.328Z,82.35
2022-12-19T04:14:31.242Z,85.15
2022-12-19T04:15:04.377Z,82.43
2022-12-19T04:16:11.987Z,85.57
2022-12-19T04:16:51.087Z,79.82
2022-12-19T04:17:50.752Z,81.13
2022-12-19T04:18:23.215Z,82.13
2022-12-19T04:19:04.919Z,81.90
2022-12-19T04:19:47.983Z,79.75
2022-12-19T04:20:22.230Z,80.47
2022-12-19T04:21:07.231Z,84.93
2022-12-19T04:21:46.928Z,82.63
2022-12-19T04:22:24.606Z,81.90
2022-12-19T04:23:11.808Z,82.40
2022-12-19T04:23:56.227Z,81.90
2022-12-19T04:24:31.222Z,85.28
2022-12-19T04:25:05.256Z,85.03
2022-12-19T04:25:45.207Z,82.80
2022-12-19T04:26:18.893Z,79.65
2022-12-19T04:26:53.258Z,79.88
2022-12-19T04:27:29.724Z,83.97
2022-12-19T04:28:10.357Z,82.88
2022-12-19T04:28:48.307Z,83.05
2022-12-19T04:29:20.485Z,80.97
2022-12-19T04:29:55.994Z,84.90
2022-12-19T04:30:27.559Z,82.20
2022-12-19T04:30:59.887Z,88.85
2022-12-19T04:31:31.682Z,85.57
2022-12-19T04:32:05.920Z,86.68
2022-12-19T04:32:38.217Z,86.70
2022-12-19T04:33:09.769Z,80.22
2022-12-19T04:33:41.858Z,88.03
2022-12-19T04:34:17.714Z,82.50
2022-12-19T04:34:49.336Z,85.47
2022-12-19T04:35:21.097Z,81.78
2022-12-19T04:35:52.715Z,85.95
2022-12-19T04:36:25.819Z,83.18
2022-12-19T04:36:57.728Z,89.00
2022-12-19T04:37:29.645Z,89.13
2022-12-19T04:38:01.283Z,86.03
2022-12-19T04:38:32.980Z,82.88
2022-12-19T04:39:04.630Z,86.45
2022-12-19T04:39:36.197Z,86.18
2022-12-19T04:40:09.067Z,91.95
2022-12-19T04:40:41.660Z,81.85
2022-12-19T04:41:13.952Z,91.85
2022-12-19T04:41:45.491Z,92.97
2022-12-19T04:42:17.085Z,86.53
2022-12-19T04:42:48.687Z,91.22
2022-12-19T04:43:20.278Z,91.32
2022-12-19T04:43:51.873Z,85.95
2022-12-19T04:44:23.441Z,82.70
2022-12-19T04:44:55.065Z,92.05
2022-12-19T04:45:26.764Z,86.80
2022-12-19T04:45:58.345Z,86.20
2022-12-19T04:46:29.922Z,92.78
2022-12-19T04:47:01.495Z,98.22
2022-12-19T04:47:33.086Z,98.15
2022-12-19T04:48:04.871Z,86.15
2022-12-19T04:48:39.220Z,85.35
2022-12-19T04:49:10.785Z,88.22
2022-12-19T04:49:42.331Z,87.68
2022-12-19T04:50:14.062Z,90.10
2022-12-19T04:50:45.621Z,83.82
2022-12-19T04:51:17.184Z,87.07
2022-12-19T04:51:49.040Z,86.60
2022-12-19T04:52:20.619Z,88.22
2022-12-19T04:52:56.907Z,83.55
2022-12-19T04:53:28.975Z,86.78
2022-12-19T04:54:00.565Z,87.55
2022-12-19T04:54:32.818Z,90.65
2022-12-19T04:55:04.697Z,88.68
2022-12-19T04:55:36.675Z,87.05
2022-12-19T04:56:09.868Z,90.13
2022-12-19T04:56:41.469Z,94.40
2022-12-19T04:57:13.129Z,88.22
2022-12-19T04:57:44.704Z,88.93
2022-12-19T04:58:21.494Z,87.60
2022-12-19T04:58:58.131Z,85.82
2022-12-19T04:59:29.849Z,88.85
2022-12-19T05:00:03.944Z,93.55
2022-12-19T05:00:35.639Z,88.82
2022-12-19T05:01:09.059Z,93.20
2022-12-19T05:01:40.824Z,89.80
2022-12-19T05:02:12.714Z,85.60
2022-12-19T05:02:44.669Z,83.53
2022-12-19T05:03:16.476Z,84.22
2022-12-19T05:03:54.074Z,81.85
2022-12-19T05:04:26.800Z,83.28
2022-12-19T05:04:58.864Z,85.55
2022-12-19T05:05:30.459Z,85.88
2022-12-19T05:06:14.537Z,90.03
2022-12-19T05:06:46.128Z,85.18
2022-12-19T05:07:17.746Z,86.28
2022-12-19T05:07:49.308Z,88.05
2022-12-19T05:08:20.915Z,83.70
2022-12-19T05:08:52.500Z,88.55
2022-12-19T05:09:24.057Z,88.57
2022-12-19T05:09:56.195Z,93.70
2022-12-19T05:10:27.777Z,97.65
2022-12-19T05:11:03.541Z,93.30
2022-12-19T05:11:35.079Z,91.72
2022-12-19T05:12:07.045Z,85.68
2022-12-19T05:12:38.654Z,86.97
2022-12-19T05:13:10.296Z,87.10
2022-12-19T05:13:42.057Z,92.03
2022-12-19T05:14:13.668Z,83.47
2022-12-19T05:14:45.693Z,96.05
2022-12-19T05:15:17.494Z,86.70
2022-12-19T05:15:56.864Z,84.85
2022-12-19T05:16:28.577Z,86.07
2022-12-19T05:17:01.440Z,83.30
2022-12-19T05:17:33.387Z,83.63
2022-12-19T05:18:05.329Z,82.15
2022-12-19T05:18:38.075Z,83.22
2022-12-19T05:19:09.704Z,86.93
2022-12-19T05:19:41.998Z,85.50
2022-12-19T05:20:13.731Z,83.82
2022-12-19T05:20:48.807Z,85.53
2022-12-19T05:21:21.396Z,84.63
2022-12-19T05:21:53.013Z,83.78
2022-12-19T05:22:24.600Z,78.68
2022-12-19T05:22:56.231Z,90.28
2022-12-19T05:23:28.299Z,94.80
2022-12-19T05:23:59.914Z,86.53
2022-12-19T05:24:31.537Z,85.30
2022-12-19T05:25:04.095Z,83.68
2022-12-19T05:25:35.872Z,89.93
2022-12-19T05:26:07.663Z,87.85
2022-12-19T05:26:39.286Z,86.95
2022-12-19T05:27:10.904Z,87.10
2022-12-19T05:27:42.517Z,88.25
2022-12-19T05:28:14.658Z,81.90
2022-12-19T05:28:46.935Z,85.43
2022-12-19T05:29:18.576Z,83.75
2022-12-19T05:29:50.229Z,92.88
2022-12-19T05:30:23.412Z,87.75
2022-12-19T05:31:16.783Z,86.15
2022-12-19T05:31:48.484Z,83.65
2022-12-19T05:32:20.128Z,79.03
2022-12-19T05:32:51.903Z,82.75
2022-12-19T05:33:23.509Z,83.55
2022-12-19T05:33:55.173Z,81.15
2022-12-19T05:34:26.788Z,83.90
2022-12-19T05:34:58.594Z,86.18
2022-12-19T05:35:30.274Z,83.38
2022-12-19T05:36:02.135Z,79.03
2022-12-19T05:36:33.789Z,87.82
2022-12-19T05:37:05.395Z,88.90
2022-12-19T05:37:36.978Z,77.38
2022-12-19T05:38:08.563Z,82.15
2022-12-19T05:38:41.022Z,86.60
2022-12-19T05:39:12.603Z,85.07
2022-12-19T05:39:44.189Z,82.20
2022-12-19T05:40:15.817Z,85.93
2022-12-19T05:40:47.403Z,83.43
2022-12-19T05:41:21.272Z,88.28
2022-12-19T05:41:52.888Z,80.65
2022-12-19T05:42:26.186Z,87.25
2022-12-19T05:42:57.837Z,83.97
2022-12-19T05:43:29.385Z,82.65
2022-12-19T05:44:01.027Z,87.47
2022-12-19T05:44:32.624Z,81.65
2022-12-19T05:45:04.498Z,84.38
2022-12-19T05:45:36.116Z,80.97
2022-12-19T05:46:07.915Z,78.85
2022-12-19T05:46:39.578Z,85.18
2022-12-19T05:47:11.161Z,85.25
2022-12-19T05:47:46.582Z,88.15
2022-12-19T05:48:18.191Z,89.75
2022-12-19T05:48:50.221Z,89.90
2022-12-19T05:49:22.162Z,99.28
2022-12-19T05:49:53.983Z,85.78
2022-12-19T05:50:25.592Z,86.65
2022-12-19T05:50:57.159Z,87.78
2022-12-19T05:51:28.740Z,84.70
2022-12-19T05:52:00.349Z,91.35
2022-12-19T05:52:32.179Z,84.47
2022-12-19T05:53:03.761Z,91.07
2022-12-19T05:53:36.688Z,89.90
2022-12-19T05:54:08.273Z,85.38
2022-12-19T05:54:39.828Z,85.97
2022-12-19T05:55:11.514Z,86.35
2022-12-19T05:55:43.482Z,89.05
2022-12-19T05:56:18.530Z,85.97
2022-12-19T05:56:50.089Z,83.75
2022-12-19T05:57:21.675Z,95.85
2022-12-19T05:57:53.357Z,92.65
2022-12-19T05:58:24.905Z,85.10
2022-12-19T05:58:57.385Z,85.10
2022-12-19T05:59:28.941Z,90.35
2022-12-19T06:00:00.914Z,88.18
2022-12-19T06:00:32.501Z,89.88
2022-12-19T06:01:09.869Z,93.95
2022-12-19T06:01:42.480Z,101.45
2022-12-19T06:02:14.255Z,93.53
2022-12-19T06:02:46.023Z,91.32
2022-12-19T06:03:17.757Z,92.63
2022-12-19T06:03:49.948Z,95.30
2022-12-19T06:04:21.568Z,90.18
2022-12-19T06:04:53.222Z,96.88
2022-12-19T06:05:24.816Z,89.82
2022-12-19T06:05:56.827Z,93.35
2022-12-19T06:06:28.503Z,92.00
2022-12-19T06:07:00.083Z,90.93
2022-12-19T06:07:32.142Z,90.45
2022-12-19T06:08:03.777Z,92.47
2022-12-19T06:08:35.506Z,99.00
2022-12-19T06:09:07.114Z,98.50
2022-12-19T06:09:38.681Z,94.82
2022-12-19T06:10:10.384Z,95.55
2022-12-19T06:10:41.945Z,93.93
2022-12-19T06:11:14.780Z,95.63
2022-12-19T06:11:46.356Z,90.80
2022-12-19T06:12:17.911Z,96.43
2022-12-19T06:12:49.492Z,90.78
2022-12-19T06:13:25.014Z,91.65
2022-12-19T06:13:56.850Z,97.18
2022-12-19T06:14:28.445Z,94.03
2022-12-19T06:15:00.042Z,93.93
2022-12-19T06:15:31.629Z,97.85
2022-12-19T06:16:09.978Z,97.18
2022-12-19T06:16:41.582Z,95.32
2022-12-19T06:17:13.338Z,92.20
2022-12-19T06:17:44.883Z,94.93
2022-12-19T06:18:16.489Z,92.25
2022-12-19T06:18:48.336Z,100.22
2022-12-19T06:19:19.942Z,94.20
2022-12-19T06:19:52.574Z,97.05
2022-12-19T06:20:24.188Z,89.57
2022-12-19T06:21:16.978Z,98.55
2022-12-19T06:21:48.767Z,92.30
2022-12-19T06:22:20.389Z,99.38
2022-12-19T06:22:51.932Z,96.80
2022-12-19T06:23:23.552Z,100.10
2022-12-19T06:23:55.467Z,102.05
2022-12-19T06:24:27.228Z,99.55
2022-12-19T06:24:58.807Z,101.32
2022-12-19T06:25:30.356Z,96.28
2022-12-19T06:26:04.599Z,98.88
2022-12-19T06:26:36.226Z,99.85
2022-12-19T06:27:07.813Z,104.03
2022-12-19T06:27:39.369Z,99.35
2022-12-19T06:28:10.964Z,105.20
2022-12-19T06:28:42.563Z,100.72
2022-12-19T06:29:14.177Z,103.57
2022-12-19T06:29:45.739Z,105.25
2022-12-19T06:30:17.394Z,101.70
2022-12-19T06:30:49.006Z,102.45
2022-12-19T06:31:22.841Z,98.05
2022-12-19T06:31:54.524Z,98.68
2022-12-19T06:32:26.130Z,104.05
2022-12-19T06:32:57.707Z,97.63
2022-12-19T06:33:30.697Z,100.65
2022-12-19T06:34:02.609Z,95.97
2022-12-19T06:35:02.845Z,99.45
2022-12-19T06:35:25.803Z,101.90
2022-12-19T06:36:06.062Z,100.72
2022-12-19T06:36:37.928Z,99.25
2022-12-19T06:37:09.498Z,105.70
2022-12-19T06:37:41.088Z,101.13
2022-12-19T06:38:12.724Z,98.32
2022-12-19T06:38:44.472Z,100.50
2022-12-19T06:39:16.796Z,101.20
2022-12-19T06:39:50.493Z,100.40
2022-12-19T06:40:40.299Z,103.43
2022-12-19T06:41:30.549Z,95.93
2022-12-19T06:42:20.463Z,99.85
2022-12-19T06:42:52.036Z,97.80
2022-12-19T06:43:26.173Z,96.55
2022-12-19T06:43:59.163Z,107.85
2022-12-19T06:44:32.077Z,102.15
2022-12-19T06:45:03.955Z,106.78
2022-12-19T06:45:35.567Z,103.20
2022-12-19T06:46:07.850Z,102.90
2022-12-19T06:46:40.327Z,105.63
2022-12-19T06:47:12.208Z,101.00
2022-12-19T06:47:43.751Z,107.90
2022-12-19T06:48:15.328Z,104.82
2022-12-19T06:48:46.881Z,104.95
2022-12-19T06:49:18.603Z,109.38
2022-12-19T06:49:50.364Z,109.15
2022-12-19T06:50:21.947Z,107.45
2022-12-19T06:50:53.579Z,109.60
2022-12-19T06:51:25.363Z,110.35
2022-12-19T06:51:56.962Z,106.05
2022-12-19T06:52:28.532Z,113.50
2022-12-19T06:53:00.379Z,105.28
2022-12-19T06:53:33.104Z,110.97
2022-12-19T06:54:04.971Z,122.57
2022-12-19T06:54:36.613Z,116.03
2022-12-19T06:55:08.648Z,113.75
2022-12-19T06:55:40.562Z,115.85
2022-12-19T06:56:14.612Z,109.97
2022-12-19T06:56:46.422Z,105.28
2022-12-19T06:57:18.004Z,114.75
2022-12-19T06:57:49.577Z,114.47
2022-12-19T06:58:24.381Z,121.10
2022-12-19T06:58:56.454Z,113.25
2022-12-19T06:59:28.044Z,116.85
2022-12-19T06:59:59.597Z,119.45
2022-12-19T07:00:31.235Z,117.03
2022-12-19T07:01:03.234Z,113.47
2022-12-19T07:01:43.971Z,117.63
2022-12-19T07:02:27.418Z,124.13
2022-12-19T07:03:00.123Z,107.00
2022-12-19T07:03:41.515Z,111.22
2022-12-19T07:04:16.471Z,110.35
2022-12-19T07:04:52.656Z,121.35
2022-12-19T07:05:24.534Z,113.55
2022-12-19T07:05:56.530Z,124.15
2022-12-19T07:06:28.424Z,121.53
2022-12-19T07:07:00.692Z,122.60
2022-12-19T07:07:32.777Z,121.93
2022-12-19T07:08:04.778Z,116.70
2022-12-19T07:08:36.385Z,118.65
2022-12-19T07:09:07.982Z,124.57
2022-12-19T07:09:40.228Z,118.70
2022-12-19T07:10:11.859Z,116.03
2022-12-19T07:10:43.531Z,110.45
2022-12-19T07:11:15.129Z,120.80
2022-12-19T07:11:46.765Z,123.78
2022-12-19T07:12:18.499Z,124.47
2022-12-19T07:12:50.093Z,129.60
2022-12-19T07:13:21.859Z,127.75
2022-12-19T07:13:53.439Z,122.57
2022-12-19T07:14:25.070Z,119.72
2022-12-19T07:14:56.679Z,115.00
2022-12-19T07:15:30.934Z,115.32
2022-12-19T07:16:05.228Z,120.47
2022-12-19T07:16:37.141Z,129.45
2022-12-19T07:17:08.797Z,130.10
2022-12-19T07:17:40.571Z,122.55
2022-12-19T07:18:12.586Z,125.93
2022-12-19T07:18:44.646Z,117.88
2022-12-19T07:19:16.766Z,115.63
2022-12-19T07:19:50.005Z,106.63
2022-12-19T07:20:22.129Z,112.45
2022-12-19T07:20:53.740Z,109.40
2022-12-19T07:21:25.526Z,113.72
2022-12-19T07:21:57.919Z,106.68
2022-12-19T07:22:33.354Z,112.35
2022-12-19T07:23:07.536Z,110.63
2022-12-19T07:23:39.726Z,115.75
2022-12-19T07:24:15.006Z,115.93
2022-12-19T07:24:46.753Z,110.97
2022-12-19T07:25:18.477Z,111.88
2022-12-19T07:25:50.316Z,118.40
2022-12-19T07:26:22.702Z,128.75
2022-12-19T07:26:54.317Z,122.93
2022-12-19T07:27:35.197Z,117.43
2022-12-19T07:28:08.346Z,111.40
2022-12-19T07:28:40.254Z,115.95
2022-12-19T07:29:12.439Z,114.68
2022-12-19T07:29:44.146Z,113.80
2022-12-19T07:30:15.744Z,124.68
2022-12-19T07:30:47.405Z,119.80
2022-12-19T07:31:19.094Z,114.70
2022-12-19T07:31:50.798Z,116.63
2022-12-19T07:32:22.488Z,123.38